sensor_id;sensor_type;location;lat;lon;timestamp;P1;durP1;ratioP1;P2;durP2;ratioP2
37445;SDS011;23307;51.136;14.942;2022-10-12T00:00:51;11.87;;;7.60;;
37445;SDS011;23307;51.136;14.942;2022-10-12T00:03:17;11.73;;;7.07;;
37445;SDS011;23307;51.136;14.942;2022-10-12T00:05:44;10.63;;;7.13;;
37445;SDS011;23307;51.136;14.942;2022-10-12T00:08:10;11.13;;;7.40;;
37445;SDS011;23307;51.136;14.942;2022-10-12T00:10:40;10.10;;;7.00;;
37445;SDS011;23307;51.136;14.942;2022-10-12T00:13:07;11.27;;;6.60;;
37445;SDS011;23307;51.136;14.942;2022-10-12T00:15:36;8.77;;;6.40;;
37445;SDS011;23307;51.136;14.942;2022-10-12T00:18:03;10.37;;;6.70;;
37445;SDS011;23307;51.136;14.942;2022-10-12T00:20:29;8.50;;;7.07;;
37445;SDS011;23307;51.136;14.942;2022-10-12T00:22:55;10.13;;;6.80;;
37445;SDS011;23307;51.136;14.942;2022-10-12T00:25:20;8.27;;;6.47;;
37445;SDS011;23307;51.136;14.942;2022-10-12T00:27:46;8.17;;;6.40;;
37445;SDS011;23307;51.136;14.942;2022-10-12T00:30:12;9.00;;;6.53;;
37445;SDS011;23307;51.136;14.942;2022-10-12T00:32:39;7.20;;;6.30;;
37445;SDS011;23307;51.136;14.942;2022-10-12T00:35:05;6.67;;;5.60;;
37445;SDS011;23307;51.136;14.942;2022-10-12T00:37:30;7.80;;;6.57;;
37445;SDS011;23307;51.136;14.942;2022-10-12T00:39:56;13.13;;;8.47;;
37445;SDS011;23307;51.136;14.942;2022-10-12T00:42:22;13.73;;;8.67;;
37445;SDS011;23307;51.136;14.942;2022-10-12T00:44:48;12.00;;;8.40;;
37445;SDS011;23307;51.136;14.942;2022-10-12T00:47:34;15.43;;;9.57;;
37445;SDS011;23307;51.136;14.942;2022-10-12T00:50:13;14.10;;;9.03;;
37445;SDS011;23307;51.136;14.942;2022-10-12T00:52:55;13.87;;;8.70;;
37445;SDS011;23307;51.136;14.942;2022-10-12T00:55:30;18.97;;;9.63;;
37445;SDS011;23307;51.136;14.942;2022-10-12T00:58:00;15.30;;;8.60;;
37445;SDS011;23307;51.136;14.942;2022-10-12T01:00:28;16.63;;;8.37;;
37445;SDS011;23307;51.136;14.942;2022-10-12T01:02:55;12.23;;;8.30;;
37445;SDS011;23307;51.136;14.942;2022-10-12T01:05:21;13.20;;;8.43;;
37445;SDS011;23307;51.136;14.942;2022-10-12T01:07:48;13.37;;;8.97;;
37445;SDS011;23307;51.136;14.942;2022-10-12T01:10:14;9.40;;;7.70;;
37445;SDS011;23307;51.136;14.942;2022-10-12T01:12:41;10.97;;;7.97;;
37445;SDS011;23307;51.136;14.942;2022-10-12T01:15:08;9.57;;;7.60;;
37445;SDS011;23307;51.136;14.942;2022-10-12T01:20:27;9.77;;;7.77;;
37445;SDS011;23307;51.136;14.942;2022-10-12T01:36:50;9.83;;;7.03;;
37445;SDS011;23307;51.136;14.942;2022-10-12T01:40:08;12.73;;;7.57;;
37445;SDS011;23307;51.136;14.942;2022-10-12T01:42:20;12.47;;;6.97;;
37445;SDS011;23307;51.136;14.942;2022-10-12T01:47:47;9.93;;;7.43;;
37445;SDS011;23307;51.136;14.942;2022-10-12T01:50:19;9.03;;;6.40;;
37445;SDS011;23307;51.136;14.942;2022-10-12T01:52:54;12.80;;;6.97;;
37445;SDS011;23307;51.136;14.942;2022-10-12T01:58:36;13.27;;;7.60;;
37445;SDS011;23307;51.136;14.942;2022-10-12T02:01:28;11.43;;;7.13;;
37445;SDS011;23307;51.136;14.942;2022-10-12T02:04:26;16.23;;;7.37;;
37445;SDS011;23307;51.136;14.942;2022-10-12T02:07:01;11.47;;;7.00;;
37445;SDS011;23307;51.136;14.942;2022-10-12T02:09:35;11.37;;;7.50;;
37445;SDS011;23307;51.136;14.942;2022-10-12T02:12:20;13.73;;;8.77;;
37445;SDS011;23307;51.136;14.942;2022-10-12T02:14:52;15.67;;;8.77;;
37445;SDS011;23307;51.136;14.942;2022-10-12T02:17:21;10.87;;;7.53;;
37445;SDS011;23307;51.136;14.942;2022-10-12T02:19:57;9.80;;;7.20;;
37445;SDS011;23307;51.136;14.942;2022-10-12T02:22:27;11.13;;;6.73;;
37445;SDS011;23307;51.136;14.942;2022-10-12T02:24:58;9.80;;;7.07;;
37445;SDS011;23307;51.136;14.942;2022-10-12T02:27:31;8.60;;;6.03;;
37445;SDS011;23307;51.136;14.942;2022-10-12T02:29:59;8.33;;;6.43;;
37445;SDS011;23307;51.136;14.942;2022-10-12T02:35:04;9.07;;;6.20;;
37445;SDS011;23307;51.136;14.942;2022-10-12T02:40:21;10.07;;;6.20;;
37445;SDS011;23307;51.136;14.942;2022-10-12T02:42:50;7.20;;;5.63;;
37445;SDS011;23307;51.136;14.942;2022-10-12T02:45:43;6.83;;;5.63;;
37445;SDS011;23307;51.136;14.942;2022-10-12T02:48:14;8.10;;;5.63;;
37445;SDS011;23307;51.136;14.942;2022-10-12T02:50:44;8.77;;;6.50;;
37445;SDS011;23307;51.136;14.942;2022-10-12T02:53:14;8.30;;;5.80;;
37445;SDS011;23307;51.136;14.942;2022-10-12T02:55:47;6.97;;;5.30;;
37445;SDS011;23307;51.136;14.942;2022-10-12T02:58:15;8.93;;;6.03;;
37445;SDS011;23307;51.136;14.942;2022-10-12T03:00:42;7.00;;;5.80;;
37445;SDS011;23307;51.136;14.942;2022-10-12T03:03:08;8.00;;;5.97;;
37445;SDS011;23307;51.136;14.942;2022-10-12T03:05:34;6.63;;;5.60;;
37445;SDS011;23307;51.136;14.942;2022-10-12T03:08:02;12.03;;;5.90;;
37445;SDS011;23307;51.136;14.942;2022-10-12T03:10:28;31.83;;;6.53;;
37445;SDS011;23307;51.136;14.942;2022-10-12T03:12:54;71.20;;;7.47;;
37445;SDS011;23307;51.136;14.942;2022-10-12T03:15:20;129.03;;;8.83;;
37445;SDS011;23307;51.136;14.942;2022-10-12T03:17:46;258.93;;;11.67;;
37445;SDS011;23307;51.136;14.942;2022-10-12T03:20:11;128.23;;;8.97;;
37445;SDS011;23307;51.136;14.942;2022-10-12T03:22:37;145.10;;;9.73;;
37445;SDS011;23307;51.136;14.942;2022-10-12T03:25:03;99.47;;;8.57;;
37445;SDS011;23307;51.136;14.942;2022-10-12T03:27:29;111.30;;;8.70;;
37445;SDS011;23307;51.136;14.942;2022-10-12T03:29:55;74.73;;;7.50;;
37445;SDS011;23307;51.136;14.942;2022-10-12T03:32:23;39.40;;;6.83;;
37445;SDS011;23307;51.136;14.942;2022-10-12T03:34:48;42.33;;;6.60;;
37445;SDS011;23307;51.136;14.942;2022-10-12T03:37:14;14.60;;;6.57;;
37445;SDS011;23307;51.136;14.942;2022-10-12T03:39:39;8.43;;;5.87;;
37445;SDS011;23307;51.136;14.942;2022-10-12T03:42:06;6.63;;;5.83;;
37445;SDS011;23307;51.136;14.942;2022-10-12T03:44:32;9.30;;;5.90;;
37445;SDS011;23307;51.136;14.942;2022-10-12T03:46:57;6.37;;;5.03;;
37445;SDS011;23307;51.136;14.942;2022-10-12T03:49:23;7.37;;;6.03;;
37445;SDS011;23307;51.136;14.942;2022-10-12T03:51:50;9.17;;;6.03;;
37445;SDS011;23307;51.136;14.942;2022-10-12T03:54:15;10.37;;;7.20;;
37445;SDS011;23307;51.136;14.942;2022-10-12T03:56:41;7.07;;;5.73;;
37445;SDS011;23307;51.136;14.942;2022-10-12T03:59:07;6.07;;;5.47;;
37445;SDS011;23307;51.136;14.942;2022-10-12T04:01:33;8.03;;;5.67;;
37445;SDS011;23307;51.136;14.942;2022-10-12T04:03:59;6.03;;;5.37;;
37445;SDS011;23307;51.136;14.942;2022-10-12T04:06:25;7.10;;;5.20;;
37445;SDS011;23307;51.136;14.942;2022-10-12T04:08:51;6.53;;;5.70;;
37445;SDS011;23307;51.136;14.942;2022-10-12T04:11:17;8.00;;;5.83;;
37445;SDS011;23307;51.136;14.942;2022-10-12T04:13:44;6.53;;;5.00;;
37445;SDS011;23307;51.136;14.942;2022-10-12T04:16:10;6.57;;;5.50;;
37445;SDS011;23307;51.136;14.942;2022-10-12T04:18:36;6.97;;;5.70;;
37445;SDS011;23307;51.136;14.942;2022-10-12T04:21:02;6.23;;;4.77;;
37445;SDS011;23307;51.136;14.942;2022-10-12T04:23:33;6.77;;;5.23;;
37445;SDS011;23307;51.136;14.942;2022-10-12T04:26:00;7.30;;;5.17;;
37445;SDS011;23307;51.136;14.942;2022-10-12T04:28:25;7.90;;;5.00;;
37445;SDS011;23307;51.136;14.942;2022-10-12T04:30:51;7.50;;;5.50;;
37445;SDS011;23307;51.136;14.942;2022-10-12T04:33:17;7.60;;;5.13;;
37445;SDS011;23307;51.136;14.942;2022-10-12T04:35:43;10.57;;;5.50;;
37445;SDS011;23307;51.136;14.942;2022-10-12T04:38:09;44.67;;;6.53;;
37445;SDS011;23307;51.136;14.942;2022-10-12T04:40:35;139.57;;;7.50;;
37445;SDS011;23307;51.136;14.942;2022-10-12T04:43:00;145.00;;;8.67;;
37445;SDS011;23307;51.136;14.942;2022-10-12T04:45:26;54.07;;;6.63;;
37445;SDS011;23307;51.136;14.942;2022-10-12T04:47:53;196.47;;;9.57;;
37445;SDS011;23307;51.136;14.942;2022-10-12T04:50:18;190.50;;;10.43;;
37445;SDS011;23307;51.136;14.942;2022-10-12T04:52:44;298.37;;;11.40;;
37445;SDS011;23307;51.136;14.942;2022-10-12T04:55:11;230.90;;;10.97;;
37445;SDS011;23307;51.136;14.942;2022-10-12T04:57:37;237.17;;;9.77;;
37445;SDS011;23307;51.136;14.942;2022-10-12T05:00:02;251.23;;;10.90;;
37445;SDS011;23307;51.136;14.942;2022-10-12T05:02:29;298.87;;;13.07;;
37445;SDS011;23307;51.136;14.942;2022-10-12T05:04:55;208.83;;;13.67;;
37445;SDS011;23307;51.136;14.942;2022-10-12T05:07:21;215.97;;;12.77;;
37445;SDS011;23307;51.136;14.942;2022-10-12T05:09:46;246.63;;;11.57;;
37445;SDS011;23307;51.136;14.942;2022-10-12T05:12:12;304.57;;;13.33;;
37445;SDS011;23307;51.136;14.942;2022-10-12T05:14:38;285.80;;;12.67;;
37445;SDS011;23307;51.136;14.942;2022-10-12T05:17:04;171.00;;;9.23;;
37445;SDS011;23307;51.136;14.942;2022-10-12T05:19:30;74.00;;;8.20;;
37445;SDS011;23307;51.136;14.942;2022-10-12T05:21:55;237.00;;;12.97;;
37445;SDS011;23307;51.136;14.942;2022-10-12T05:24:21;126.97;;;13.47;;
37445;SDS011;23307;51.136;14.942;2022-10-12T05:26:48;76.97;;;9.57;;
37445;SDS011;23307;51.136;14.942;2022-10-12T05:29:13;10.83;;;7.43;;
37445;SDS011;23307;51.136;14.942;2022-10-12T05:31:39;47.87;;;7.93;;
37445;SDS011;23307;51.136;14.942;2022-10-12T05:34:05;52.43;;;6.80;;
37445;SDS011;23307;51.136;14.942;2022-10-12T05:36:31;28.40;;;7.13;;
37445;SDS011;23307;51.136;14.942;2022-10-12T05:38:57;41.30;;;6.53;;
37445;SDS011;23307;51.136;14.942;2022-10-12T05:41:23;14.63;;;6.67;;
37445;SDS011;23307;51.136;14.942;2022-10-12T05:43:49;25.77;;;6.53;;
37445;SDS011;23307;51.136;14.942;2022-10-12T05:46:14;21.37;;;6.53;;
37445;SDS011;23307;51.136;14.942;2022-10-12T05:48:40;25.40;;;6.97;;
37445;SDS011;23307;51.136;14.942;2022-10-12T05:51:05;13.77;;;6.70;;
37445;SDS011;23307;51.136;14.942;2022-10-12T05:53:31;48.83;;;7.23;;
37445;SDS011;23307;51.136;14.942;2022-10-12T05:55:58;40.50;;;6.70;;
37445;SDS011;23307;51.136;14.942;2022-10-12T05:58:25;49.53;;;7.07;;
37445;SDS011;23307;51.136;14.942;2022-10-12T06:00:52;55.20;;;7.57;;
37445;SDS011;23307;51.136;14.942;2022-10-12T06:03:20;22.53;;;6.97;;
37445;SDS011;23307;51.136;14.942;2022-10-12T06:05:48;12.13;;;6.73;;
37445;SDS011;23307;51.136;14.942;2022-10-12T06:08:17;41.23;;;6.93;;
37445;SDS011;23307;51.136;14.942;2022-10-12T06:10:44;84.40;;;8.73;;
37445;SDS011;23307;51.136;14.942;2022-10-12T06:13:11;80.93;;;7.10;;
37445;SDS011;23307;51.136;14.942;2022-10-12T06:15:37;109.33;;;8.40;;
37445;SDS011;23307;51.136;14.942;2022-10-12T06:18:02;70.27;;;6.90;;
37445;SDS011;23307;51.136;14.942;2022-10-12T06:20:28;120.10;;;8.17;;
37445;SDS011;23307;51.136;14.942;2022-10-12T06:22:53;97.90;;;7.80;;
37445;SDS011;23307;51.136;14.942;2022-10-12T06:25:19;222.93;;;11.13;;
37445;SDS011;23307;51.136;14.942;2022-10-12T06:27:45;125.30;;;8.60;;
37445;SDS011;23307;51.136;14.942;2022-10-12T06:30:11;102.80;;;7.80;;
37445;SDS011;23307;51.136;14.942;2022-10-12T06:32:37;111.93;;;8.30;;
37445;SDS011;23307;51.136;14.942;2022-10-12T06:35:02;105.73;;;8.10;;
37445;SDS011;23307;51.136;14.942;2022-10-12T06:37:28;125.03;;;8.20;;
37445;SDS011;23307;51.136;14.942;2022-10-12T06:39:54;50.60;;;7.17;;
37445;SDS011;23307;51.136;14.942;2022-10-12T06:42:20;52.13;;;7.30;;
37445;SDS011;23307;51.136;14.942;2022-10-12T06:44:45;36.93;;;6.90;;
37445;SDS011;23307;51.136;14.942;2022-10-12T06:47:11;55.17;;;7.17;;
37445;SDS011;23307;51.136;14.942;2022-10-12T06:49:36;55.10;;;6.90;;
37445;SDS011;23307;51.136;14.942;2022-10-12T06:52:02;53.93;;;7.57;;
37445;SDS011;23307;51.136;14.942;2022-10-12T06:54:28;55.37;;;7.63;;
37445;SDS011;23307;51.136;14.942;2022-10-12T06:56:53;70.67;;;7.83;;
37445;SDS011;23307;51.136;14.942;2022-10-12T06:59:19;71.83;;;8.50;;
37445;SDS011;23307;51.136;14.942;2022-10-12T07:01:46;77.70;;;8.90;;
37445;SDS011;23307;51.136;14.942;2022-10-12T07:04:13;80.47;;;8.30;;
37445;SDS011;23307;51.136;14.942;2022-10-12T07:06:39;47.40;;;7.97;;
37445;SDS011;23307;51.136;14.942;2022-10-12T07:09:04;81.30;;;8.60;;
37445;SDS011;23307;51.136;14.942;2022-10-12T07:11:30;33.70;;;7.70;;
37445;SDS011;23307;51.136;14.942;2022-10-12T07:13:56;29.60;;;7.93;;
37445;SDS011;23307;51.136;14.942;2022-10-12T07:16:21;34.73;;;8.23;;
37445;SDS011;23307;51.136;14.942;2022-10-12T07:18:47;29.00;;;8.07;;
37445;SDS011;23307;51.136;14.942;2022-10-12T07:21:13;26.97;;;8.73;;
37445;SDS011;23307;51.136;14.942;2022-10-12T07:23:38;28.37;;;8.80;;
37445;SDS011;23307;51.136;14.942;2022-10-12T07:26:04;22.70;;;8.00;;
37445;SDS011;23307;51.136;14.942;2022-10-12T07:28:32;18.70;;;8.37;;
37445;SDS011;23307;51.136;14.942;2022-10-12T07:30:59;15.80;;;8.17;;
37445;SDS011;23307;51.136;14.942;2022-10-12T07:33:30;13.10;;;8.50;;
37445;SDS011;23307;51.136;14.942;2022-10-12T07:36:00;12.80;;;8.23;;
37445;SDS011;23307;51.136;14.942;2022-10-12T07:38:26;11.33;;;8.57;;
37445;SDS011;23307;51.136;14.942;2022-10-12T07:40:52;11.33;;;8.07;;
37445;SDS011;23307;51.136;14.942;2022-10-12T07:43:18;16.97;;;9.33;;
37445;SDS011;23307;51.136;14.942;2022-10-12T07:45:44;15.57;;;9.43;;
37445;SDS011;23307;51.136;14.942;2022-10-12T07:48:09;14.20;;;8.90;;
37445;SDS011;23307;51.136;14.942;2022-10-12T07:50:35;13.73;;;9.00;;
37445;SDS011;23307;51.136;14.942;2022-10-12T07:53:01;15.27;;;8.27;;
37445;SDS011;23307;51.136;14.942;2022-10-12T07:55:26;12.97;;;7.87;;
37445;SDS011;23307;51.136;14.942;2022-10-12T07:57:53;13.37;;;7.40;;
37445;SDS011;23307;51.136;14.942;2022-10-12T08:00:19;13.23;;;7.73;;
37445;SDS011;23307;51.136;14.942;2022-10-12T08:02:46;11.80;;;7.53;;
37445;SDS011;23307;51.136;14.942;2022-10-12T08:05:11;15.77;;;6.60;;
37445;SDS011;23307;51.136;14.942;2022-10-12T08:07:37;11.20;;;7.13;;
37445;SDS011;23307;51.136;14.942;2022-10-12T08:10:02;11.57;;;6.53;;
37445;SDS011;23307;51.136;14.942;2022-10-12T08:12:28;11.53;;;6.33;;
37445;SDS011;23307;51.136;14.942;2022-10-12T08:14:54;12.23;;;6.07;;
37445;SDS011;23307;51.136;14.942;2022-10-12T08:17:19;10.95;;;6.20;;
37445;SDS011;23307;51.136;14.942;2022-10-12T08:19:45;12.38;;;6.35;;
37445;SDS011;23307;51.136;14.942;2022-10-12T08:22:10;11.55;;;6.78;;
37445;SDS011;23307;51.136;14.942;2022-10-12T08:24:36;10.55;;;6.70;;
37445;SDS011;23307;51.136;14.942;2022-10-12T08:27:02;13.07;;;5.78;;
37445;SDS011;23307;51.136;14.942;2022-10-12T08:29:28;11.02;;;6.07;;
37445;SDS011;23307;51.136;14.942;2022-10-12T08:31:53;13.27;;;6.75;;
37445;SDS011;23307;51.136;14.942;2022-10-12T08:34:19;15.38;;;5.53;;
37445;SDS011;23307;51.136;14.942;2022-10-12T08:36:45;9.40;;;5.53;;
37445;SDS011;23307;51.136;14.942;2022-10-12T08:39:10;10.75;;;5.32;;
37445;SDS011;23307;51.136;14.942;2022-10-12T08:47:08;11.18;;;4.85;;
37445;SDS011;23307;51.136;14.942;2022-10-12T08:49:46;8.10;;;4.75;;
37445;SDS011;23307;51.136;14.942;2022-10-12T08:54:47;7.68;;;4.30;;
37445;SDS011;23307;51.136;14.942;2022-10-12T08:57:15;8.70;;;4.57;;
37445;SDS011;23307;51.136;14.942;2022-10-12T08:59:42;9.30;;;4.45;;
37445;SDS011;23307;51.136;14.942;2022-10-12T09:05:02;10.93;;;4.70;;
37445;SDS011;23307;51.136;14.942;2022-10-12T09:10:45;7.07;;;4.60;;
37445;SDS011;23307;51.136;14.942;2022-10-12T09:13:36;8.15;;;4.80;;
37445;SDS011;23307;51.136;14.942;2022-10-12T09:16:19;8.43;;;3.90;;
37445;SDS011;23307;51.136;14.942;2022-10-12T09:18:48;6.80;;;2.75;;
37445;SDS011;23307;51.136;14.942;2022-10-12T09:21:21;6.32;;;2.55;;
37445;SDS011;23307;51.136;14.942;2022-10-12T09:23:49;4.88;;;1.80;;
37445;SDS011;23307;51.136;14.942;2022-10-12T09:26:19;5.05;;;2.38;;
37445;SDS011;23307;51.136;14.942;2022-10-12T09:28:50;5.65;;;1.88;;
37445;SDS011;23307;51.136;14.942;2022-10-12T09:34:13;4.88;;;2.38;;
37445;SDS011;23307;51.136;14.942;2022-10-12T09:36:39;6.85;;;2.50;;
37445;SDS011;23307;51.136;14.942;2022-10-12T09:39:19;4.53;;;2.25;;
37445;SDS011;23307;51.136;14.942;2022-10-12T09:41:54;5.93;;;2.08;;
37445;SDS011;23307;51.136;14.942;2022-10-12T09:44:31;5.88;;;2.30;;
37445;SDS011;23307;51.136;14.942;2022-10-12T09:46:58;5.50;;;2.50;;
37445;SDS011;23307;51.136;14.942;2022-10-12T09:54:59;4.45;;;2.20;;
37445;SDS011;23307;51.136;14.942;2022-10-12T09:57:50;9.63;;;2.40;;
37445;SDS011;23307;51.136;14.942;2022-10-12T10:00:31;7.95;;;2.50;;
37445;SDS011;23307;51.136;14.942;2022-10-12T10:02:58;5.35;;;2.35;;
37445;SDS011;23307;51.136;14.942;2022-10-12T10:05:29;6.68;;;2.58;;
37445;SDS011;23307;51.136;14.942;2022-10-12T10:08:43;5.85;;;2.38;;
37445;SDS011;23307;51.136;14.942;2022-10-12T10:10:54;6.25;;;2.90;;
37445;SDS011;23307;51.136;14.942;2022-10-12T10:13:24;5.78;;;2.25;;
37445;SDS011;23307;51.136;14.942;2022-10-12T10:16:03;4.63;;;2.40;;
37445;SDS011;23307;51.136;14.942;2022-10-12T10:18:34;5.97;;;2.22;;
37445;SDS011;23307;51.136;14.942;2022-10-12T10:21:03;6.07;;;2.63;;
37445;SDS011;23307;51.136;14.942;2022-10-12T10:23:52;7.22;;;2.95;;
37445;SDS011;23307;51.136;14.942;2022-10-12T10:26:21;10.50;;;2.45;;
37445;SDS011;23307;51.136;14.942;2022-10-12T10:32:01;8.50;;;2.55;;
37445;SDS011;23307;51.136;14.942;2022-10-12T10:34:40;6.97;;;2.30;;
37445;SDS011;23307;51.136;14.942;2022-10-12T10:37:06;5.30;;;2.08;;
37445;SDS011;23307;51.136;14.942;2022-10-12T10:39:44;4.82;;;2.13;;
37445;SDS011;23307;51.136;14.942;2022-10-12T10:42:11;6.45;;;2.10;;
37445;SDS011;23307;51.136;14.942;2022-10-12T10:44:45;5.07;;;2.42;;
37445;SDS011;23307;51.136;14.942;2022-10-12T10:47:21;8.10;;;2.40;;
37445;SDS011;23307;51.136;14.942;2022-10-12T10:49:48;5.53;;;2.03;;
37445;SDS011;23307;51.136;14.942;2022-10-12T10:52:30;4.53;;;2.15;;
37445;SDS011;23307;51.136;14.942;2022-10-12T10:55:05;5.32;;;1.90;;
37445;SDS011;23307;51.136;14.942;2022-10-12T10:57:34;6.25;;;1.80;;
37445;SDS011;23307;51.136;14.942;2022-10-12T11:00:04;3.65;;;1.83;;
37445;SDS011;23307;51.136;14.942;2022-10-12T11:02:44;5.38;;;2.40;;
37445;SDS011;23307;51.136;14.942;2022-10-12T11:05:33;5.43;;;1.83;;
37445;SDS011;23307;51.136;14.942;2022-10-12T11:08:05;6.18;;;2.10;;
37445;SDS011;23307;51.136;14.942;2022-10-12T11:13:14;6.78;;;1.75;;
37445;SDS011;23307;51.136;14.942;2022-10-12T11:21:17;10.02;;;2.17;;
37445;SDS011;23307;51.136;14.942;2022-10-12T11:26:44;5.22;;;1.70;;
37445;SDS011;23307;51.136;14.942;2022-10-12T11:29:15;5.72;;;2.03;;
37445;SDS011;23307;51.136;14.942;2022-10-12T11:31:42;6.13;;;2.05;;
37445;SDS011;23307;51.136;14.942;2022-10-12T11:34:16;6.63;;;2.10;;
37445;SDS011;23307;51.136;14.942;2022-10-12T11:36:45;9.40;;;2.70;;
37445;SDS011;23307;51.136;14.942;2022-10-12T11:39:14;5.82;;;2.10;;
37445;SDS011;23307;51.136;14.942;2022-10-12T11:42:02;6.68;;;2.65;;
37445;SDS011;23307;51.136;14.942;2022-10-12T11:44:40;6.80;;;2.33;;
37445;SDS011;23307;51.136;14.942;2022-10-12T11:52:19;5.75;;;2.25;;
37445;SDS011;23307;51.136;14.942;2022-10-12T11:57:43;4.07;;;2.00;;
37445;SDS011;23307;51.136;14.942;2022-10-12T12:02:44;4.80;;;2.35;;
37445;SDS011;23307;51.136;14.942;2022-10-12T12:05:15;5.22;;;2.28;;
37445;SDS011;23307;51.136;14.942;2022-10-12T12:15:42;7.40;;;2.10;;
37445;SDS011;23307;51.136;14.942;2022-10-12T12:19:08;4.72;;;2.42;;
37445;SDS011;23307;51.136;14.942;2022-10-12T12:24:49;7.30;;;2.50;;
37445;SDS011;23307;51.136;14.942;2022-10-12T12:30:19;4.47;;;2.63;;
37445;SDS011;23307;51.136;14.942;2022-10-12T12:32:56;5.78;;;2.33;;
37445;SDS011;23307;51.136;14.942;2022-10-12T12:35:24;5.43;;;2.92;;
37445;SDS011;23307;51.136;14.942;2022-10-12T12:38:12;7.82;;;2.97;;
37445;SDS011;23307;51.136;14.942;2022-10-12T12:41:42;4.90;;;2.70;;
37445;SDS011;23307;51.136;14.942;2022-10-12T12:45:58;6.43;;;2.60;;
37445;SDS011;23307;51.136;14.942;2022-10-12T12:51:10;5.25;;;2.60;;
37445;SDS011;23307;51.136;14.942;2022-10-12T12:53:46;5.88;;;2.33;;
37445;SDS011;23307;51.136;14.942;2022-10-12T12:56:18;6.68;;;2.67;;
37445;SDS011;23307;51.136;14.942;2022-10-12T13:07:57;6.07;;;2.80;;
37445;SDS011;23307;51.136;14.942;2022-10-12T13:21:11;5.38;;;2.75;;
37445;SDS011;23307;51.136;14.942;2022-10-12T13:23:40;5.88;;;2.65;;
37445;SDS011;23307;51.136;14.942;2022-10-12T13:26:11;5.63;;;3.00;;
37445;SDS011;23307;51.136;14.942;2022-10-12T13:28:42;6.03;;;2.55;;
37445;SDS011;23307;51.136;14.942;2022-10-12T13:31:18;4.80;;;2.67;;
37445;SDS011;23307;51.136;14.942;2022-10-12T13:36:56;4.45;;;2.42;;
37445;SDS011;23307;51.136;14.942;2022-10-12T13:39:24;5.53;;;3.03;;
37445;SDS011;23307;51.136;14.942;2022-10-12T13:41:51;5.07;;;2.38;;
37445;SDS011;23307;51.136;14.942;2022-10-12T13:44:21;4.97;;;2.47;;
37445;SDS011;23307;51.136;14.942;2022-10-12T13:46:50;4.70;;;2.80;;
37445;SDS011;23307;51.136;14.942;2022-10-12T13:51:52;5.43;;;2.92;;
37445;SDS011;23307;51.136;14.942;2022-10-12T13:54:42;8.45;;;2.90;;
37445;SDS011;23307;51.136;14.942;2022-10-12T14:02:40;5.57;;;2.72;;
37445;SDS011;23307;51.136;14.942;2022-10-12T14:05:17;5.97;;;2.60;;
37445;SDS011;23307;51.136;14.942;2022-10-12T14:07:44;5.85;;;2.67;;
37445;SDS011;23307;51.136;14.942;2022-10-12T14:10:18;9.63;;;2.83;;
37445;SDS011;23307;51.136;14.942;2022-10-12T14:12:44;6.43;;;2.65;;
37445;SDS011;23307;51.136;14.942;2022-10-12T14:15:13;7.97;;;2.45;;
37445;SDS011;23307;51.136;14.942;2022-10-12T14:17:42;9.07;;;2.90;;
37445;SDS011;23307;51.136;14.942;2022-10-12T14:20:15;6.32;;;2.88;;
37445;SDS011;23307;51.136;14.942;2022-10-12T14:23:12;10.43;;;2.95;;
37445;SDS011;23307;51.136;14.942;2022-10-12T14:25:49;6.85;;;2.67;;
37445;SDS011;23307;51.136;14.942;2022-10-12T14:28:38;5.85;;;2.70;;
37445;SDS011;23307;51.136;14.942;2022-10-12T14:31:03;8.90;;;2.60;;
37445;SDS011;23307;51.136;14.942;2022-10-12T14:33:28;4.43;;;2.67;;
37445;SDS011;23307;51.136;14.942;2022-10-12T14:38:47;8.77;;;2.92;;
37445;SDS011;23307;51.136;14.942;2022-10-12T14:41:35;5.47;;;2.70;;
37445;SDS011;23307;51.136;14.942;2022-10-12T14:46:29;8.45;;;3.10;;
37445;SDS011;23307;51.136;14.942;2022-10-12T14:48:55;15.35;;;3.15;;
37445;SDS011;23307;51.136;14.942;2022-10-12T14:51:21;5.53;;;2.83;;
37445;SDS011;23307;51.136;14.942;2022-10-12T14:53:56;6.68;;;2.90;;
37445;SDS011;23307;51.136;14.942;2022-10-12T14:56:25;8.02;;;3.33;;
37445;SDS011;23307;51.136;14.942;2022-10-12T14:58:51;4.70;;;2.53;;
37445;SDS011;23307;51.136;14.942;2022-10-12T15:01:16;6.15;;;2.80;;
37445;SDS011;23307;51.136;14.942;2022-10-12T15:03:42;6.95;;;2.92;;
37445;SDS011;23307;51.136;14.942;2022-10-12T15:06:11;5.35;;;2.70;;
37445;SDS011;23307;51.136;14.942;2022-10-12T15:08:38;7.82;;;3.13;;
37445;SDS011;23307;51.136;14.942;2022-10-12T15:11:04;10.32;;;4.25;;
37445;SDS011;23307;51.136;14.942;2022-10-12T15:13:29;5.88;;;3.40;;
37445;SDS011;23307;51.136;14.942;2022-10-12T15:15:55;5.72;;;3.03;;
37445;SDS011;23307;51.136;14.942;2022-10-12T15:18:24;5.93;;;3.20;;
37445;SDS011;23307;51.136;14.942;2022-10-12T15:20:50;8.75;;;3.00;;
37445;SDS011;23307;51.136;14.942;2022-10-12T15:23:16;8.15;;;3.30;;
37445;SDS011;23307;51.136;14.942;2022-10-12T15:28:17;6.72;;;3.28;;
37445;SDS011;23307;51.136;14.942;2022-10-12T15:30:44;6.85;;;3.00;;
37445;SDS011;23307;51.136;14.942;2022-10-12T15:33:10;6.50;;;3.38;;
37445;SDS011;23307;51.136;14.942;2022-10-12T15:35:36;6.68;;;4.65;;
37445;SDS011;23307;51.136;14.942;2022-10-12T15:38:03;5.82;;;3.83;;
37445;SDS011;23307;51.136;14.942;2022-10-12T15:40:29;8.77;;;6.22;;
37445;SDS011;23307;51.136;14.942;2022-10-12T15:42:56;10.48;;;6.10;;
37445;SDS011;23307;51.136;14.942;2022-10-12T15:45:23;11.57;;;6.95;;
37445;SDS011;23307;51.136;14.942;2022-10-12T15:47:51;11.00;;;7.15;;
37445;SDS011;23307;51.136;14.942;2022-10-12T15:50:23;13.55;;;7.72;;
37445;SDS011;23307;51.136;14.942;2022-10-12T15:52:52;17.88;;;10.30;;
37445;SDS011;23307;51.136;14.942;2022-10-12T15:55:20;12.30;;;8.88;;
37445;SDS011;23307;51.136;14.942;2022-10-12T15:57:47;11.35;;;8.80;;
37445;SDS011;23307;51.136;14.942;2022-10-12T16:00:14;12.23;;;7.93;;
37445;SDS011;23307;51.136;14.942;2022-10-12T16:02:40;14.05;;;7.65;;
37445;SDS011;23307;51.136;14.942;2022-10-12T16:05:23;14.55;;;8.48;;
37445;SDS011;23307;51.136;14.942;2022-10-12T16:08:07;21.45;;;13.38;;
37445;SDS011;23307;51.136;14.942;2022-10-12T16:10:35;14.90;;;9.48;;
37445;SDS011;23307;51.136;14.942;2022-10-12T16:13:02;25.50;;;16.92;;
37445;SDS011;23307;51.136;14.942;2022-10-12T16:15:30;20.77;;;14.75;;
37445;SDS011;23307;51.136;14.942;2022-10-12T16:17:57;18.13;;;12.73;;
37445;SDS011;23307;51.136;14.942;2022-10-12T16:20:24;17.95;;;11.23;;
37445;SDS011;23307;51.136;14.942;2022-10-12T16:22:51;18.55;;;12.52;;
37445;SDS011;23307;51.136;14.942;2022-10-12T16:25:17;17.55;;;12.40;;
37445;SDS011;23307;51.136;14.942;2022-10-12T16:27:46;17.55;;;10.70;;
37445;SDS011;23307;51.136;14.942;2022-10-12T16:30:11;14.48;;;9.90;;
37445;SDS011;23307;51.136;14.942;2022-10-12T16:32:37;12.63;;;7.88;;
37445;SDS011;23307;51.136;14.942;2022-10-12T16:35:03;12.55;;;8.07;;
37445;SDS011;23307;51.136;14.942;2022-10-12T16:37:30;11.95;;;7.20;;
37445;SDS011;23307;51.136;14.942;2022-10-12T16:39:55;6.80;;;5.05;;
37445;SDS011;23307;51.136;14.942;2022-10-12T16:42:21;7.00;;;4.57;;
37445;SDS011;23307;51.136;14.942;2022-10-12T16:44:47;11.02;;;6.05;;
37445;SDS011;23307;51.136;14.942;2022-10-12T16:47:13;8.65;;;5.15;;
37445;SDS011;23307;51.136;14.942;2022-10-12T16:49:39;8.43;;;5.28;;
37445;SDS011;23307;51.136;14.942;2022-10-12T16:52:05;8.77;;;5.55;;